sensor_id;sensor_type;location;lat;lon;timestamp;P1;durP1;ratioP1;P2;durP2;ratioP2
25715;SDS011;13573;50.936;4.328;2023-04-03T00:00:13;20.20;;;9.73;;
25715;SDS011;13573;50.936;4.328;2023-04-03T00:02:39;19.20;;;9.57;;
25715;SDS011;13573;50.936;4.328;2023-04-03T00:05:06;14.63;;;8.30;;
25715;SDS011;13573;50.936;4.328;2023-04-03T00:07:33;16.90;;;8.83;;
25715;SDS011;13573;50.936;4.328;2023-04-03T00:10:00;16.73;;;9.10;;
25715;SDS011;13573;50.936;4.328;2023-04-03T00:12:27;17.30;;;9.43;;
25715;SDS011;13573;50.936;4.328;2023-04-03T00:14:53;16.27;;;9.03;;
25715;SDS011;13573;50.936;4.328;2023-04-03T00:17:20;15.27;;;8.23;;
25715;SDS011;13573;50.936;4.328;2023-04-03T00:19:46;16.80;;;8.97;;
25715;SDS011;13573;50.936;4.328;2023-04-03T00:22:14;17.67;;;8.83;;
25715;SDS011;13573;50.936;4.328;2023-04-03T00:24:40;15.20;;;8.97;;
25715;SDS011;13573;50.936;4.328;2023-04-03T00:27:07;13.97;;;8.00;;
25715;SDS011;13573;50.936;4.328;2023-04-03T00:29:34;13.57;;;8.37;;
25715;SDS011;13573;50.936;4.328;2023-04-03T00:32:01;18.03;;;8.77;;
25715;SDS011;13573;50.936;4.328;2023-04-03T00:34:27;16.60;;;9.07;;
25715;SDS011;13573;50.936;4.328;2023-04-03T00:36:54;13.80;;;8.80;;
25715;SDS011;13573;50.936;4.328;2023-04-03T00:39:20;14.53;;;8.63;;
25715;SDS011;13573;50.936;4.328;2023-04-03T00:41:47;15.00;;;9.10;;
25715;SDS011;13573;50.936;4.328;2023-04-03T00:47:17;14.87;;;9.40;;
25715;SDS011;13573;50.936;4.328;2023-04-03T00:49:44;15.37;;;9.13;;
25715;SDS011;13573;50.936;4.328;2023-04-03T00:52:13;16.60;;;8.63;;
25715;SDS011;13573;50.936;4.328;2023-04-03T00:54:42;17.90;;;9.50;;
25715;SDS011;13573;50.936;4.328;2023-04-03T00:57:09;17.60;;;9.47;;
25715;SDS011;13573;50.936;4.328;2023-04-03T00:59:39;21.23;;;9.50;;
25715;SDS011;13573;50.936;4.328;2023-04-03T01:02:10;17.13;;;9.70;;
25715;SDS011;13573;50.936;4.328;2023-04-03T01:04:38;14.03;;;9.03;;
25715;SDS011;13573;50.936;4.328;2023-04-03T01:07:08;16.07;;;8.83;;
25715;SDS011;13573;50.936;4.328;2023-04-03T01:09:37;18.10;;;9.27;;
25715;SDS011;13573;50.936;4.328;2023-04-03T01:14:56;15.37;;;8.27;;
25715;SDS011;13573;50.936;4.328;2023-04-03T01:17:27;15.07;;;8.63;;
25715;SDS011;13573;50.936;4.328;2023-04-03T01:19:59;15.53;;;8.57;;
25715;SDS011;13573;50.936;4.328;2023-04-03T01:22:26;16.87;;;9.13;;
25715;SDS011;13573;50.936;4.328;2023-04-03T01:24:52;13.63;;;8.60;;
25715;SDS011;13573;50.936;4.328;2023-04-03T01:27:19;15.40;;;8.90;;
25715;SDS011;13573;50.936;4.328;2023-04-03T01:29:46;15.97;;;9.03;;
25715;SDS011;13573;50.936;4.328;2023-04-03T01:32:12;19.33;;;8.63;;
25715;SDS011;13573;50.936;4.328;2023-04-03T01:34:39;14.70;;;8.70;;
25715;SDS011;13573;50.936;4.328;2023-04-03T01:37:06;14.27;;;8.30;;
25715;SDS011;13573;50.936;4.328;2023-04-03T01:39:32;16.10;;;8.60;;
25715;SDS011;13573;50.936;4.328;2023-04-03T01:41:58;13.37;;;8.13;;
25715;SDS011;13573;50.936;4.328;2023-04-03T01:44:25;17.77;;;8.20;;
25715;SDS011;13573;50.936;4.328;2023-04-03T01:46:52;17.40;;;8.00;;
25715;SDS011;13573;50.936;4.328;2023-04-03T01:49:18;13.30;;;8.30;;
25715;SDS011;13573;50.936;4.328;2023-04-03T01:51:45;13.13;;;7.53;;
25715;SDS011;13573;50.936;4.328;2023-04-03T01:54:12;18.17;;;8.33;;
25715;SDS011;13573;50.936;4.328;2023-04-03T01:56:38;14.07;;;7.57;;
25715;SDS011;13573;50.936;4.328;2023-04-03T01:59:05;14.03;;;7.50;;
25715;SDS011;13573;50.936;4.328;2023-04-03T02:01:32;16.50;;;8.07;;
25715;SDS011;13573;50.936;4.328;2023-04-03T02:03:58;16.17;;;8.73;;
25715;SDS011;13573;50.936;4.328;2023-04-03T02:06:26;14.07;;;8.57;;
25715;SDS011;13573;50.936;4.328;2023-04-03T02:08:52;12.90;;;7.47;;
25715;SDS011;13573;50.936;4.328;2023-04-03T02:11:19;14.70;;;8.37;;
25715;SDS011;13573;50.936;4.328;2023-04-03T02:13:46;16.43;;;8.37;;
25715;SDS011;13573;50.936;4.328;2023-04-03T02:16:13;16.07;;;8.00;;
25715;SDS011;13573;50.936;4.328;2023-04-03T02:18:39;17.90;;;8.00;;
25715;SDS011;13573;50.936;4.328;2023-04-03T02:21:06;13.47;;;8.00;;
25715;SDS011;13573;50.936;4.328;2023-04-03T02:23:33;15.70;;;8.40;;
25715;SDS011;13573;50.936;4.328;2023-04-03T02:26:03;16.83;;;8.00;;
25715;SDS011;13573;50.936;4.328;2023-04-03T02:28:31;12.07;;;7.73;;
25715;SDS011;13573;50.936;4.328;2023-04-03T02:30:58;13.30;;;7.20;;
25715;SDS011;13573;50.936;4.328;2023-04-03T02:33:25;14.90;;;7.73;;
25715;SDS011;13573;50.936;4.328;2023-04-03T02:35:53;18.27;;;8.03;;
25715;SDS011;13573;50.936;4.328;2023-04-03T02:38:20;11.37;;;7.40;;
25715;SDS011;13573;50.936;4.328;2023-04-03T02:40:47;11.40;;;7.50;;
25715;SDS011;13573;50.936;4.328;2023-04-03T02:43:14;17.50;;;8.73;;
25715;SDS011;13573;50.936;4.328;2023-04-03T02:45:40;14.27;;;7.57;;
25715;SDS011;13573;50.936;4.328;2023-04-03T02:48:07;13.73;;;7.30;;
25715;SDS011;13573;50.936;4.328;2023-04-03T02:50:34;16.93;;;8.40;;
25715;SDS011;13573;50.936;4.328;2023-04-03T02:53:01;18.27;;;9.83;;
25715;SDS011;13573;50.936;4.328;2023-04-03T02:55:27;14.20;;;7.77;;
25715;SDS011;13573;50.936;4.328;2023-04-03T02:57:54;15.40;;;7.97;;
25715;SDS011;13573;50.936;4.328;2023-04-03T03:00:21;16.20;;;8.60;;
25715;SDS011;13573;50.936;4.328;2023-04-03T03:02:48;18.03;;;9.17;;
25715;SDS011;13573;50.936;4.328;2023-04-03T03:05:14;12.80;;;7.70;;
25715;SDS011;13573;50.936;4.328;2023-04-03T03:07:41;18.87;;;8.80;;
25715;SDS011;13573;50.936;4.328;2023-04-03T03:10:08;15.10;;;8.00;;
25715;SDS011;13573;50.936;4.328;2023-04-03T03:12:35;13.93;;;8.27;;
25715;SDS011;13573;50.936;4.328;2023-04-03T03:15:02;14.07;;;8.67;;
25715;SDS011;13573;50.936;4.328;2023-04-03T03:17:28;15.47;;;8.57;;
25715;SDS011;13573;50.936;4.328;2023-04-03T03:19:55;18.60;;;8.70;;
25715;SDS011;13573;50.936;4.328;2023-04-03T03:22:22;16.57;;;8.80;;
25715;SDS011;13573;50.936;4.328;2023-04-03T03:24:49;15.67;;;8.97;;
25715;SDS011;13573;50.936;4.328;2023-04-03T03:27:16;16.30;;;8.80;;
25715;SDS011;13573;50.936;4.328;2023-04-03T03:29:43;20.00;;;9.33;;
25715;SDS011;13573;50.936;4.328;2023-04-03T03:32:10;14.90;;;9.20;;
25715;SDS011;13573;50.936;4.328;2023-04-03T03:34:36;15.80;;;8.83;;
25715;SDS011;13573;50.936;4.328;2023-04-03T03:37:03;16.67;;;8.90;;
25715;SDS011;13573;50.936;4.328;2023-04-03T03:39:30;17.20;;;8.73;;
25715;SDS011;13573;50.936;4.328;2023-04-03T03:41:57;16.03;;;8.43;;
25715;SDS011;13573;50.936;4.328;2023-04-03T03:44:23;17.60;;;9.13;;
25715;SDS011;13573;50.936;4.328;2023-04-03T03:46:50;26.33;;;10.40;;
25715;SDS011;13573;50.936;4.328;2023-04-03T03:49:16;15.20;;;9.50;;
25715;SDS011;13573;50.936;4.328;2023-04-03T03:51:44;15.43;;;8.93;;
25715;SDS011;13573;50.936;4.328;2023-04-03T03:54:11;15.07;;;8.97;;
25715;SDS011;13573;50.936;4.328;2023-04-03T03:56:37;16.43;;;9.13;;
25715;SDS011;13573;50.936;4.328;2023-04-03T03:59:05;16.07;;;8.53;;
25715;SDS011;13573;50.936;4.328;2023-04-03T04:01:32;15.97;;;9.30;;
25715;SDS011;13573;50.936;4.328;2023-04-03T04:03:59;18.27;;;9.40;;
25715;SDS011;13573;50.936;4.328;2023-04-03T04:06:25;19.97;;;10.50;;
25715;SDS011;13573;50.936;4.328;2023-04-03T04:08:52;18.20;;;9.97;;
25715;SDS011;13573;50.936;4.328;2023-04-03T04:11:19;20.47;;;10.93;;
25715;SDS011;13573;50.936;4.328;2023-04-03T04:13:48;19.97;;;10.67;;
25715;SDS011;13573;50.936;4.328;2023-04-03T04:16:14;18.83;;;10.27;;
25715;SDS011;13573;50.936;4.328;2023-04-03T04:18:41;17.70;;;10.47;;
25715;SDS011;13573;50.936;4.328;2023-04-03T04:21:08;22.07;;;10.70;;
25715;SDS011;13573;50.936;4.328;2023-04-03T04:23:34;18.70;;;10.67;;
25715;SDS011;13573;50.936;4.328;2023-04-03T04:26:00;21.23;;;11.07;;
25715;SDS011;13573;50.936;4.328;2023-04-03T04:28:27;17.57;;;10.70;;
25715;SDS011;13573;50.936;4.328;2023-04-03T04:30:55;24.73;;;10.77;;
25715;SDS011;13573;50.936;4.328;2023-04-03T04:33:21;17.67;;;9.73;;
25715;SDS011;13573;50.936;4.328;2023-04-03T04:35:48;19.00;;;9.93;;
25715;SDS011;13573;50.936;4.328;2023-04-03T04:38:15;22.10;;;10.30;;
25715;SDS011;13573;50.936;4.328;2023-04-03T04:40:42;17.20;;;10.83;;
25715;SDS011;13573;50.936;4.328;2023-04-03T04:43:09;19.57;;;10.90;;
25715;SDS011;13573;50.936;4.328;2023-04-03T04:45:38;20.97;;;11.53;;
25715;SDS011;13573;50.936;4.328;2023-04-03T04:48:04;18.90;;;10.80;;
25715;SDS011;13573;50.936;4.328;2023-04-03T04:50:31;24.07;;;12.57;;
25715;SDS011;13573;50.936;4.328;2023-04-03T04:52:58;27.20;;;11.93;;
25715;SDS011;13573;50.936;4.328;2023-04-03T04:55:24;25.00;;;12.80;;
25715;SDS011;13573;50.936;4.328;2023-04-03T04:57:51;22.03;;;11.97;;
25715;SDS011;13573;50.936;4.328;2023-04-03T05:00:17;29.07;;;13.57;;
25715;SDS011;13573;50.936;4.328;2023-04-03T05:02:45;21.30;;;12.30;;
25715;SDS011;13573;50.936;4.328;2023-04-03T05:05:11;22.00;;;11.47;;
25715;SDS011;13573;50.936;4.328;2023-04-03T05:07:38;24.17;;;12.90;;
25715;SDS011;13573;50.936;4.328;2023-04-03T05:10:06;23.30;;;12.70;;
25715;SDS011;13573;50.936;4.328;2023-04-03T05:12:34;26.07;;;13.70;;
25715;SDS011;13573;50.936;4.328;2023-04-03T05:15:00;24.40;;;12.63;;
25715;SDS011;13573;50.936;4.328;2023-04-03T05:17:27;24.73;;;13.50;;
25715;SDS011;13573;50.936;4.328;2023-04-03T05:19:54;25.27;;;13.00;;
25715;SDS011;13573;50.936;4.328;2023-04-03T05:22:20;24.73;;;13.60;;
25715;SDS011;13573;50.936;4.328;2023-04-03T05:24:47;29.93;;;13.30;;
25715;SDS011;13573;50.936;4.328;2023-04-03T05:27:13;25.40;;;13.20;;
25715;SDS011;13573;50.936;4.328;2023-04-03T05:29:41;25.20;;;13.70;;
25715;SDS011;13573;50.936;4.328;2023-04-03T05:32:09;26.13;;;13.07;;
25715;SDS011;13573;50.936;4.328;2023-04-03T05:34:37;28.33;;;13.33;;
25715;SDS011;13573;50.936;4.328;2023-04-03T05:37:03;24.77;;;15.03;;
25715;SDS011;13573;50.936;4.328;2023-04-03T05:39:30;27.80;;;14.97;;
25715;SDS011;13573;50.936;4.328;2023-04-03T05:41:57;26.20;;;14.57;;
25715;SDS011;13573;50.936;4.328;2023-04-03T05:44:24;28.37;;;15.07;;
25715;SDS011;13573;50.936;4.328;2023-04-03T05:46:50;26.17;;;13.10;;
25715;SDS011;13573;50.936;4.328;2023-04-03T05:49:17;23.63;;;12.20;;
25715;SDS011;13573;50.936;4.328;2023-04-03T05:51:44;19.87;;;10.30;;
25715;SDS011;13573;50.936;4.328;2023-04-03T05:54:12;16.40;;;9.23;;
25715;SDS011;13573;50.936;4.328;2023-04-03T05:56:39;13.17;;;8.20;;
25715;SDS011;13573;50.936;4.328;2023-04-03T05:59:06;12.80;;;7.77;;
25715;SDS011;13573;50.936;4.328;2023-04-03T06:01:33;14.87;;;7.90;;
25715;SDS011;13573;50.936;4.328;2023-04-03T06:04:00;13.23;;;7.53;;
25715;SDS011;13573;50.936;4.328;2023-04-03T06:06:42;15.13;;;6.87;;
25715;SDS011;13573;50.936;4.328;2023-04-03T06:09:13;15.77;;;7.23;;
25715;SDS011;13573;50.936;4.328;2023-04-03T06:11:41;13.07;;;6.83;;
25715;SDS011;13573;50.936;4.328;2023-04-03T06:14:08;12.67;;;7.40;;
25715;SDS011;13573;50.936;4.328;2023-04-03T06:16:35;16.67;;;7.20;;
25715;SDS011;13573;50.936;4.328;2023-04-03T06:19:02;11.40;;;6.77;;
25715;SDS011;13573;50.936;4.328;2023-04-03T06:21:29;9.27;;;6.57;;
25715;SDS011;13573;50.936;4.328;2023-04-03T06:23:56;11.17;;;6.77;;
25715;SDS011;13573;50.936;4.328;2023-04-03T06:26:23;13.03;;;6.63;;
25715;SDS011;13573;50.936;4.328;2023-04-03T06:28:49;12.57;;;7.03;;
25715;SDS011;13573;50.936;4.328;2023-04-03T06:31:16;14.67;;;7.37;;
25715;SDS011;13573;50.936;4.328;2023-04-03T06:33:43;10.93;;;6.90;;
25715;SDS011;13573;50.936;4.328;2023-04-03T06:36:10;10.20;;;6.37;;
25715;SDS011;13573;50.936;4.328;2023-04-03T06:38:38;14.70;;;6.80;;
25715;SDS011;13573;50.936;4.328;2023-04-03T06:41:04;9.00;;;6.57;;
25715;SDS011;13573;50.936;4.328;2023-04-03T06:43:31;14.13;;;7.10;;
25715;SDS011;13573;50.936;4.328;2023-04-03T06:45:58;9.73;;;7.17;;
25715;SDS011;13573;50.936;4.328;2023-04-03T06:48:25;10.93;;;6.53;;
25715;SDS011;13573;50.936;4.328;2023-04-03T06:50:52;12.13;;;7.07;;
25715;SDS011;13573;50.936;4.328;2023-04-03T06:53:19;13.50;;;6.70;;
25715;SDS011;13573;50.936;4.328;2023-04-03T06:55:46;9.97;;;6.70;;
25715;SDS011;13573;50.936;4.328;2023-04-03T06:58:13;9.53;;;6.60;;
25715;SDS011;13573;50.936;4.328;2023-04-03T07:00:40;9.20;;;5.80;;
25715;SDS011;13573;50.936;4.328;2023-04-03T07:03:08;12.07;;;6.33;;
25715;SDS011;13573;50.936;4.328;2023-04-03T07:05:34;9.57;;;6.50;;
25715;SDS011;13573;50.936;4.328;2023-04-03T07:08:01;13.57;;;6.70;;
25715;SDS011;13573;50.936;4.328;2023-04-03T07:10:27;11.70;;;6.90;;
25715;SDS011;13573;50.936;4.328;2023-04-03T07:12:54;11.30;;;7.37;;
25715;SDS011;13573;50.936;4.328;2023-04-03T07:15:20;10.57;;;5.57;;
25715;SDS011;13573;50.936;4.328;2023-04-03T07:17:47;12.87;;;6.33;;
25715;SDS011;13573;50.936;4.328;2023-04-03T07:20:14;8.73;;;6.40;;
25715;SDS011;13573;50.936;4.328;2023-04-03T07:22:40;9.17;;;6.20;;
25715;SDS011;13573;50.936;4.328;2023-04-03T07:25:07;10.57;;;6.13;;
25715;SDS011;13573;50.936;4.328;2023-04-03T07:27:34;7.93;;;6.23;;
25715;SDS011;13573;50.936;4.328;2023-04-03T07:30:01;12.20;;;6.43;;
25715;SDS011;13573;50.936;4.328;2023-04-03T07:32:28;9.20;;;6.23;;
25715;SDS011;13573;50.936;4.328;2023-04-03T07:34:55;10.20;;;5.70;;
25715;SDS011;13573;50.936;4.328;2023-04-03T07:37:22;8.47;;;5.13;;
25715;SDS011;13573;50.936;4.328;2023-04-03T07:39:48;9.40;;;5.57;;
25715;SDS011;13573;50.936;4.328;2023-04-03T07:42:15;10.43;;;5.93;;
25715;SDS011;13573;50.936;4.328;2023-04-03T07:44:42;11.83;;;5.67;;
25715;SDS011;13573;50.936;4.328;2023-04-03T07:47:08;11.57;;;6.10;;
25715;SDS011;13573;50.936;4.328;2023-04-03T07:49:35;10.97;;;5.93;;
25715;SDS011;13573;50.936;4.328;2023-04-03T07:52:04;13.13;;;6.80;;
25715;SDS011;13573;50.936;4.328;2023-04-03T07:54:33;12.83;;;7.40;;
25715;SDS011;13573;50.936;4.328;2023-04-03T07:56:59;18.87;;;8.40;;
25715;SDS011;13573;50.936;4.328;2023-04-03T07:59:27;17.83;;;10.43;;
25715;SDS011;13573;50.936;4.328;2023-04-03T08:01:54;19.77;;;11.70;;
25715;SDS011;13573;50.936;4.328;2023-04-03T08:04:20;17.10;;;10.83;;
25715;SDS011;13573;50.936;4.328;2023-04-03T08:06:47;16.80;;;10.00;;
25715;SDS011;13573;50.936;4.328;2023-04-03T08:09:14;13.63;;;10.03;;
25715;SDS011;13573;50.936;4.328;2023-04-03T08:11:41;12.57;;;8.57;;
25715;SDS011;13573;50.936;4.328;2023-04-03T08:14:07;12.27;;;7.40;;
25715;SDS011;13573;50.936;4.328;2023-04-03T08:16:36;12.97;;;7.07;;
25715;SDS011;13573;50.936;4.328;2023-04-03T08:19:03;12.37;;;8.50;;
25715;SDS011;13573;50.936;4.328;2023-04-03T08:21:29;16.97;;;9.90;;
25715;SDS011;13573;50.936;4.328;2023-04-03T08:23:56;14.43;;;7.90;;
25715;SDS011;13573;50.936;4.328;2023-04-03T08:26:22;12.60;;;8.03;;
25715;SDS011;13573;50.936;4.328;2023-04-03T08:28:50;10.97;;;7.10;;
25715;SDS011;13573;50.936;4.328;2023-04-03T08:31:17;12.13;;;6.50;;
25715;SDS011;13573;50.936;4.328;2023-04-03T08:33:45;11.13;;;6.13;;
25715;SDS011;13573;50.936;4.328;2023-04-03T08:36:16;10.33;;;5.47;;
25715;SDS011;13573;50.936;4.328;2023-04-03T08:38:46;10.20;;;4.97;;
25715;SDS011;13573;50.936;4.328;2023-04-03T08:41:14;7.93;;;4.73;;
25715;SDS011;13573;50.936;4.328;2023-04-03T08:44:52;7.50;;;4.53;;
25715;SDS011;13573;50.936;4.328;2023-04-03T08:46:32;8.60;;;4.27;;
25715;SDS011;13573;50.936;4.328;2023-04-03T08:48:54;9.60;;;4.70;;
25715;SDS011;13573;50.936;4.328;2023-04-03T08:51:24;9.23;;;4.40;;
25715;SDS011;13573;50.936;4.328;2023-04-03T08:53:57;8.53;;;4.43;;
25715;SDS011;13573;50.936;4.328;2023-04-03T08:56:29;11.43;;;3.77;;
25715;SDS011;13573;50.936;4.328;2023-04-03T08:59:00;16.07;;;3.47;;
25715;SDS011;13573;50.936;4.328;2023-04-03T09:01:34;7.30;;;4.27;;
25715;SDS011;13573;50.936;4.328;2023-04-03T09:04:01;6.50;;;3.73;;
25715;SDS011;13573;50.936;4.328;2023-04-03T09:06:30;9.10;;;3.23;;
25715;SDS011;13573;50.936;4.328;2023-04-03T09:09:06;5.80;;;3.53;;
25715;SDS011;13573;50.936;4.328;2023-04-03T09:17:07;6.43;;;3.63;;
25715;SDS011;13573;50.936;4.328;2023-04-03T09:19:36;7.90;;;3.03;;
25715;SDS011;13573;50.936;4.328;2023-04-03T09:22:13;5.93;;;3.13;;
25715;SDS011;13573;50.936;4.328;2023-04-03T09:24:40;7.07;;;3.30;;
25715;SDS011;13573;50.936;4.328;2023-04-03T09:27:09;5.97;;;2.90;;
25715;SDS011;13573;50.936;4.328;2023-04-03T09:29:38;7.63;;;2.67;;
25715;SDS011;13573;50.936;4.328;2023-04-03T09:34:41;8.10;;;2.70;;
25715;SDS011;13573;50.936;4.328;2023-04-03T09:37:09;5.77;;;2.30;;
25715;SDS011;13573;50.936;4.328;2023-04-03T09:42:19;6.50;;;2.80;;
25715;SDS011;13573;50.936;4.328;2023-04-03T09:44:53;4.57;;;2.07;;
25715;SDS011;13573;50.936;4.328;2023-04-03T09:47:18;6.43;;;3.13;;
25715;SDS011;13573;50.936;4.328;2023-04-03T09:49:45;7.77;;;4.07;;
25715;SDS011;13573;50.936;4.328;2023-04-03T09:54:45;6.33;;;2.07;;
25715;SDS011;13573;50.936;4.328;2023-04-03T09:57:12;5.20;;;2.33;;
25715;SDS011;13573;50.936;4.328;2023-04-03T09:59:41;4.37;;;2.00;;
25715;SDS011;13573;50.936;4.328;2023-04-03T10:02:32;5.93;;;2.10;;
25715;SDS011;13573;50.936;4.328;2023-04-03T10:04:59;4.77;;;1.97;;
25715;SDS011;13573;50.936;4.328;2023-04-03T10:07:28;4.90;;;2.07;;
25715;SDS011;13573;50.936;4.328;2023-04-03T10:10:01;5.27;;;2.30;;
25715;SDS011;13573;50.936;4.328;2023-04-03T10:12:35;5.43;;;2.50;;
25715;SDS011;13573;50.936;4.328;2023-04-03T10:15:02;4.93;;;2.23;;
25715;SDS011;13573;50.936;4.328;2023-04-03T10:17:37;5.40;;;1.93;;
25715;SDS011;13573;50.936;4.328;2023-04-03T10:23:02;3.53;;;2.03;;
25715;SDS011;13573;50.936;4.328;2023-04-03T10:25:51;5.90;;;1.93;;
25715;SDS011;13573;50.936;4.328;2023-04-03T10:28:28;6.90;;;1.90;;
25715;SDS011;13573;50.936;4.328;2023-04-03T10:31:04;4.03;;;1.77;;
25715;SDS011;13573;50.936;4.328;2023-04-03T10:33:36;4.37;;;1.70;;
25715;SDS011;13573;50.936;4.328;2023-04-03T10:36:10;5.10;;;2.43;;
25715;SDS011;13573;50.936;4.328;2023-04-03T10:38:46;5.57;;;2.30;;
25715;SDS011;13573;50.936;4.328;2023-04-03T10:41:19;7.70;;;1.90;;
25715;SDS011;13573;50.936;4.328;2023-04-03T10:43:50;4.90;;;1.73;;
25715;SDS011;13573;50.936;4.328;2023-04-03T10:46:21;6.87;;;1.97;;
25715;SDS011;13573;50.936;4.328;2023-04-03T10:48:58;5.10;;;2.00;;
25715;SDS011;13573;50.936;4.328;2023-04-03T10:51:27;6.30;;;2.40;;
25715;SDS011;13573;50.936;4.328;2023-04-03T10:54:11;9.07;;;2.23;;
25715;SDS011;13573;50.936;4.328;2023-04-03T10:56:47;8.37;;;1.80;;
25715;SDS011;13573;50.936;4.328;2023-04-03T10:59:16;8.30;;;2.60;;
25715;SDS011;13573;50.936;4.328;2023-04-03T11:01:45;6.17;;;1.77;;
25715;SDS011;13573;50.936;4.328;2023-04-03T11:04:12;24.43;;;12.80;;
25715;SDS011;13573;50.936;4.328;2023-04-03T11:06:45;15.77;;;9.33;;
25715;SDS011;13573;50.936;4.328;2023-04-03T11:09:24;8.87;;;5.93;;
25715;SDS011;13573;50.936;4.328;2023-04-03T11:11:56;4.90;;;2.70;;
25715;SDS011;13573;50.936;4.328;2023-04-03T11:14:27;7.43;;;3.60;;
25715;SDS011;13573;50.936;4.328;2023-04-03T11:17:28;3.90;;;1.97;;
25715;SDS011;13573;50.936;4.328;2023-04-03T11:20:03;6.70;;;2.17;;
25715;SDS011;13573;50.936;4.328;2023-04-03T11:22:37;6.13;;;1.70;;
25715;SDS011;13573;50.936;4.328;2023-04-03T11:27:55;4.23;;;1.80;;
25715;SDS011;13573;50.936;4.328;2023-04-03T11:33:17;5.23;;;1.60;;
25715;SDS011;13573;50.936;4.328;2023-04-03T11:35:48;3.50;;;1.60;;
25715;SDS011;13573;50.936;4.328;2023-04-03T11:38:22;6.57;;;1.67;;
25715;SDS011;13573;50.936;4.328;2023-04-03T11:40:52;5.83;;;1.73;;
25715;SDS011;13573;50.936;4.328;2023-04-03T11:43:22;7.47;;;1.97;;
25715;SDS011;13573;50.936;4.328;2023-04-03T11:45:53;4.97;;;2.37;;
25715;SDS011;13573;50.936;4.328;2023-04-03T11:48:42;4.67;;;2.20;;
25715;SDS011;13573;50.936;4.328;2023-04-03T11:56:42;3.83;;;1.60;;
25715;SDS011;13573;50.936;4.328;2023-04-03T11:59:21;4.80;;;1.90;;
25715;SDS011;13573;50.936;4.328;2023-04-03T12:01:53;5.07;;;2.57;;
25715;SDS011;13573;50.936;4.328;2023-04-03T12:04:20;4.07;;;2.20;;
25715;SDS011;13573;50.936;4.328;2023-04-03T12:06:54;5.40;;;1.60;;
25715;SDS011;13573;50.936;4.328;2023-04-03T12:09:29;5.37;;;1.60;;
25715;SDS011;13573;50.936;4.328;2023-04-03T12:12:01;3.70;;;1.73;;
25715;SDS011;13573;50.936;4.328;2023-04-03T12:14:30;3.77;;;1.70;;
25715;SDS011;13573;50.936;4.328;2023-04-03T12:16:57;4.33;;;1.60;;
25715;SDS011;13573;50.936;4.328;2023-04-03T12:22:11;2.83;;;1.40;;
25715;SDS011;13573;50.936;4.328;2023-04-03T12:24:40;3.37;;;1.63;;
25715;SDS011;13573;50.936;4.328;2023-04-03T12:27:13;4.10;;;1.53;;
25715;SDS011;13573;50.936;4.328;2023-04-03T12:29:46;3.43;;;1.80;;
25715;SDS011;13573;50.936;4.328;2023-04-03T12:35:05;5.87;;;1.50;;
25715;SDS011;13573;50.936;4.328;2023-04-03T12:37:37;3.17;;;1.37;;
25715;SDS011;13573;50.936;4.328;2023-04-03T12:40:21;2.83;;;1.33;;
25715;SDS011;13573;50.936;4.328;2023-04-03T12:45:20;4.70;;;1.40;;
25715;SDS011;13573;50.936;4.328;2023-04-03T12:47:49;4.57;;;1.80;;
25715;SDS011;13573;50.936;4.328;2023-04-03T12:50:21;3.73;;;1.57;;
25715;SDS011;13573;50.936;4.328;2023-04-03T12:52:56;4.40;;;1.60;;
25715;SDS011;13573;50.936;4.328;2023-04-03T12:55:26;4.70;;;1.70;;
25715;SDS011;13573;50.936;4.328;2023-04-03T12:57:53;3.60;;;1.50;;
25715;SDS011;13573;50.936;4.328;2023-04-03T13:00:35;3.97;;;1.20;;
25715;SDS011;13573;50.936;4.328;2023-04-03T13:03:04;5.33;;;1.10;;
25715;SDS011;13573;50.936;4.328;2023-04-03T13:05:32;6.50;;;1.73;;
25715;SDS011;13573;50.936;4.328;2023-04-03T13:07:59;2.50;;;1.37;;
25715;SDS011;13573;50.936;4.328;2023-04-03T13:10:29;11.27;;;2.10;;
25715;SDS011;13573;50.936;4.328;2023-04-03T13:12:57;4.33;;;1.60;;
25715;SDS011;13573;50.936;4.328;2023-04-03T13:15:29;2.47;;;1.20;;
25715;SDS011;13573;50.936;4.328;2023-04-03T13:17:56;3.70;;;1.37;;
25715;SDS011;13573;50.936;4.328;2023-04-03T13:20:24;3.10;;;1.47;;
25715;SDS011;13573;50.936;4.328;2023-04-03T13:22:56;2.27;;;1.30;;
25715;SDS011;13573;50.936;4.328;2023-04-03T13:25:23;4.70;;;1.77;;
25715;SDS011;13573;50.936;4.328;2023-04-03T13:27:53;3.43;;;1.80;;
25715;SDS011;13573;50.936;4.328;2023-04-03T13:30:22;6.63;;;1.80;;
25715;SDS011;13573;50.936;4.328;2023-04-03T13:32:54;4.83;;;1.70;;
25715;SDS011;13573;50.936;4.328;2023-04-03T13:35:24;6.17;;;1.80;;
25715;SDS011;13573;50.936;4.328;2023-04-03T13:37:54;4.33;;;1.63;;
25715;SDS011;13573;50.936;4.328;2023-04-03T13:40:22;4.10;;;1.47;;
25715;SDS011;13573;50.936;4.328;2023-04-03T13:45:24;3.07;;;1.40;;
25715;SDS011;13573;50.936;4.328;2023-04-03T13:48:06;3.93;;;1.90;;
25715;SDS011;13573;50.936;4.328;2023-04-03T13:50:23;2.90;;;1.40;;
25715;SDS011;13573;50.936;4.328;2023-04-03T13:52:54;3.90;;;1.57;;
25715;SDS011;13573;50.936;4.328;2023-04-03T13:55:25;3.83;;;1.70;;
25715;SDS011;13573;50.936;4.328;2023-04-03T13:57:56;4.43;;;2.00;;
25715;SDS011;13573;50.936;4.328;2023-04-03T14:00:30;11.40;;;6.43;;
25715;SDS011;13573;50.936;4.328;2023-04-03T14:03:00;5.13;;;2.50;;
25715;SDS011;13573;50.936;4.328;2023-04-03T14:05:27;4.83;;;1.73;;
25715;SDS011;13573;50.936;4.328;2023-04-03T14:07:56;9.87;;;5.70;;
25715;SDS011;13573;50.936;4.328;2023-04-03T14:10:22;10.80;;;8.13;;
25715;SDS011;13573;50.936;4.328;2023-04-03T14:12:49;4.53;;;2.23;;
25715;SDS011;13573;50.936;4.328;2023-04-03T14:15:27;4.27;;;1.90;;
25715;SDS011;13573;50.936;4.328;2023-04-03T14:17:54;6.67;;;2.10;;
25715;SDS011;13573;50.936;4.328;2023-04-03T14:20:22;3.93;;;1.87;;
25715;SDS011;13573;50.936;4.328;2023-04-03T14:22:49;5.53;;;2.20;;
25715;SDS011;13573;50.936;4.328;2023-04-03T14:25:17;4.17;;;2.00;;
25715;SDS011;13573;50.936;4.328;2023-04-03T14:27:46;5.53;;;2.00;;
25715;SDS011;13573;50.936;4.328;2023-04-03T14:30:18;3.43;;;2.00;;
25715;SDS011;13573;50.936;4.328;2023-04-03T14:32:44;4.97;;;2.50;;
25715;SDS011;13573;50.936;4.328;2023-04-03T14:35:12;5.87;;;2.70;;
25715;SDS011;13573;50.936;4.328;2023-04-03T14:37:39;4.93;;;2.30;;
25715;SDS011;13573;50.936;4.328;2023-04-03T14:40:07;4.63;;;2.00;;
25715;SDS011;13573;50.936;4.328;2023-04-03T14:42:37;7.47;;;1.93;;
25715;SDS011;13573;50.936;4.328;2023-04-03T14:45:05;8.27;;;2.20;;
25715;SDS011;13573;50.936;4.328;2023-04-03T14:47:32;3.13;;;1.70;;
25715;SDS011;13573;50.936;4.328;2023-04-03T14:50:00;4.20;;;1.70;;
25715;SDS011;13573;50.936;4.328;2023-04-03T14:52:31;3.57;;;1.70;;
25715;SDS011;13573;50.936;4.328;2023-04-03T14:54:58;3.23;;;1.73;;
25715;SDS011;13573;50.936;4.328;2023-04-03T14:57:27;3.50;;;1.70;;
25715;SDS011;13573;50.936;4.328;2023-04-03T14:59:55;2.87;;;1.10;;
25715;SDS011;13573;50.936;4.328;2023-04-03T15:05:05;3.07;;;1.20;;
25715;SDS011;13573;50.936;4.328;2023-04-03T15:07:33;6.90;;;1.97;;
25715;SDS011;13573;50.936;4.328;2023-04-03T15:10:05;2.93;;;1.70;;
25715;SDS011;13573;50.936;4.328;2023-04-03T15:12:37;3.90;;;1.87;;
25715;SDS011;13573;50.936;4.328;2023-04-03T15:15:04;3.07;;;1.40;;
25715;SDS011;13573;50.936;4.328;2023-04-03T15:17:31;3.57;;;1.20;;
25715;SDS011;13573;50.936;4.328;2023-04-03T15:19:59;3.60;;;1.57;;
25715;SDS011;13573;50.936;4.328;2023-04-03T15:22:27;4.57;;;2.30;;
25715;SDS011;13573;50.936;4.328;2023-04-03T15:24:54;2.00;;;1.20;;
25715;SDS011;13573;50.936;4.328;2023-04-03T15:27:20;2.20;;;1.60;;
25715;SDS011;13573;50.936;4.328;2023-04-03T15:29:47;5.93;;;1.60;;
25715;SDS011;13573;50.936;4.328;2023-04-03T15:32:13;2.70;;;1.50;;